Pagrindinis puslapis
METAR-TAF:

METAR-TAF

Oro uostai :

Bluefields, Nikaragva

platuma: 12-00N, ilguma: 083-46W, Aukštis: 5 m

Dabartinis oras

Ataskaita buvo paskelbta 53 minutes, ne 23:00 UTC
Vėjas 4 kt iš Rytų
Temperatūra 28°C
Drėgmė 84%
Slėgis 1010 hPa
Matomumas: 8000 m
Su prošvaistėmis ne aukštis 1700 ft
netoliese, lietus

METAR: MNBL 222300Z 10004KT 8000 VCRA BKN017 28/25 Q1010 RA/NE/E/NW

Laikas: 17:53 (23:53 UTC)

Prognozė

Ataskaita buvo paskelbta 2 valandos ir 10 minutes, ne 21:43 UTC
Prognozė galioja nuo 23 metu 00 UTC su 23 metu 24 UTC
Vėjas 6 kt nuo kintamojo kryptimis
Matomumas: 7000 m
Mažai debesys ne aukštis 1700 ft, Liūtiniai kamuoliniai debesys.
Su prošvaistėmis ne aukštis 6000 ft
lietus
Tapsmas
nuo 23 metu 02 UTC su 23 metu 06 UTC
Matomumas: 4000 m
Tapsmas
nuo 23 metu 08 UTC su 23 metu 12 UTC
Matomumas: 6000 m
Su prošvaistėmis ne aukštis 1800 ft
lietus

TAF: MNBL 222143Z 2300/2324 VRB06KT 7000 -RA FEW017CB BKN060 BECMG 2302/2306 4000 TSRA/RA BECMG 2308/2312 6000 -RA BKN018

Orai ataskaitas ir orų prognozės (METAR, TAF).

turimą stotys yra geltonos ir raudonos taškus žemėlapyje.

Perkelti pele per norėdami pamatyti stoties vardą.

Tada spustelėkite, norėdami matyti oro stebėjimo ir prognozės.

Norėdami pakeisti žemėlapį: spustelėkite ant žalios mygtukų su juodo kryžiaus žemyn,; žalią mygtuką su brūkšneliu, jei norite nutolinti; arba žalių rodyklių gretimoms žemėlapius.


METAR-TAF: